Time;durP1;ratioP1;P1;durP2;ratioP2;P2;SDS_P1;SDS_P2;PMS_P1;PMS_P2;Temp;Humidity;BMP_temperature;BMP_pressure;BME280_temperature;BME280_humidity;BME280_pressure;Samples;Min_cycle;Max_cycle;Signal;HPM_P1;HPM_P2
2022/11/22 00:01:39;;;;;;;;;;;;;;;15.59;71.45;98441.94;5091570;28;1800;-64
2022/11/22 00:04:04;;;;;;;;;;;;;;;15.58;71.80;98445.84;5086743;28;1758;-65
2022/11/22 00:06:29;;;;;;;;;;;;;;;15.59;71.78;98441.13;5087396;28;1735;-65
2022/11/22 00:08:55;;;;;;;;;;;;;;;15.57;71.83;98441.50;5092523;28;1805;-64
2022/11/22 00:11:20;;;;;;;;;;;;;;;15.57;72.07;98438.75;5095607;28;1773;-65
2022/11/22 00:13:45;;;;;;;;;;;;;;;15.57;72.06;98441.50;5091654;28;1965;-64
2022/11/22 00:16:10;;;;;;;;;;;;;;;15.58;71.92;98445.06;5091234;28;2123;-65
2022/11/22 00:18:35;;;;;;;;;;;;;;;15.56;71.37;98439.94;5095404;28;1797;-65
2022/11/22 00:21:04;;;;;;;;;;;;;;;15.57;72.00;98438.75;5096388;28;1725;-65
2022/11/22 00:23:30;;;;;;;;;;;;;;;15.58;72.08;98450.56;5090061;28;1699;-64
2022/11/22 00:25:55;;;;;;;;;;;;;;;15.56;71.83;98441.88;5095592;28;1695;-65
2022/11/22 00:28:20;;;;;;;;;;;;;;;15.57;71.98;98437.97;5092662;28;2061;-66
2022/11/22 00:30:45;;;;;;;;;;;;;;;15.57;72.07;98437.97;5094231;28;1597;-65
2022/11/22 00:33:10;;;;;;;;;;;;;;;15.57;72.00;98432.44;5094521;28;2088;-65
2022/11/22 00:35:36;;;;;;;;;;;;;;;15.56;72.07;98431.66;5093700;28;1869;-65
2022/11/22 00:38:01;;;;;;;;;;;;;;;15.56;71.87;98431.66;5086534;28;1928;-64
2022/11/22 00:40:26;;;;;;;;;;;;;;;15.57;71.75;98421.41;5095751;28;1899;-64
2022/11/22 00:42:52;;;;;;;;;;;;;;;15.55;71.83;98415.47;5086583;28;1964;-64
2022/11/22 00:45:17;;;;;;;;;;;;;;;15.55;71.91;98412.72;5092410;28;1889;-65
2022/11/22 00:47:42;;;;;;;;;;;;;;;15.56;72.62;98414.31;5090275;28;1627;-64
2022/11/22 00:50:08;;;;;;;;;;;;;;;15.56;72.17;98414.31;5094801;28;1819;-65
2022/11/22 00:52:33;;;;;;;;;;;;;;;15.52;72.37;98398.44;5093819;28;2062;-64
2022/11/22 00:54:58;;;;;;;;;;;;;;;15.56;71.96;98395.00;5090651;28;1862;-65
2022/11/22 00:57:24;;;;;;;;;;;;;;;15.52;72.12;98390.19;5086108;28;1899;-64
2022/11/22 00:59:49;;;;;;;;;;;;;;;15.54;71.94;98381.56;5089538;28;2054;-65
2022/11/22 01:02:14;;;;;;;;;;;;;;;15.54;71.66;98384.34;5093974;28;1899;-65
2022/11/22 01:04:39;;;;;;;;;;;;;;;15.54;72.24;98389.06;5085981;28;1643;-65
2022/11/22 01:07:04;;;;;;;;;;;;;;;15.55;72.28;98387.88;5093636;28;1793;-64
2022/11/22 01:09:29;;;;;;;;;;;;;;;15.54;72.44;98392.59;5095186;28;1680;-65
2022/11/22 01:11:54;;;;;;;;;;;;;;;15.53;72.35;98385.47;5093694;28;1893;-65
2022/11/22 01:14:20;;;;;;;;;;;;;;;15.51;72.65;98377.56;5087392;28;1579;-65
2022/11/22 01:16:45;;;;;;;;;;;;;;;15.52;72.48;98370.06;5092090;28;2158;-65
2022/11/22 01:19:10;;;;;;;;;;;;;;;15.54;71.98;98367.78;5094842;28;1628;-64
2022/11/22 01:21:36;;;;;;;;;;;;;;;15.54;72.36;98372.50;5088728;28;1847;-65
2022/11/22 01:24:01;;;;;;;;;;;;;;;15.51;72.44;98351.94;5094421;28;1895;-64
2022/11/22 01:26:26;;;;;;;;;;;;;;;15.51;72.41;98368.47;5091705;28;1846;-64
2022/11/22 01:28:51;;;;;;;;;;;;;;;15.52;72.52;98364.56;5094935;28;1724;-64
2022/11/22 01:31:16;;;;;;;;;;;;;;;15.50;72.23;98355.84;5094923;28;1647;-65
2022/11/22 01:33:41;;;;;;;;;;;;;;;15.51;72.64;98355.50;5091116;28;1976;-66
2022/11/22 01:36:07;;;;;;;;;;;;;;;15.51;72.64;98358.25;5088630;28;2401;-65
2022/11/22 01:38:32;;;;;;;;;;;;;;;15.51;72.87;98351.94;5089165;28;1641;-65
2022/11/22 01:40:57;;;;;;;;;;;;;;;15.51;72.38;98352.72;5087962;28;1568;-64
2022/11/22 01:43:23;;;;;;;;;;;;;;;15.50;72.27;98351.13;5094508;28;1556;-65
2022/11/22 01:45:50;;;;;;;;;;;;;;;15.50;72.89;98345.63;5090143;28;2204;-64
2022/11/22 01:48:18;;;;;;;;;;;;;;;15.50;72.50;98350.34;5093978;28;1686;-65
2022/11/22 01:50:45;;;;;;;;;;;;;;;15.50;72.46;98340.09;5091746;28;2119;-64
2022/11/22 01:53:14;;;;;;;;;;;;;;;15.49;72.78;98335.75;5089585;28;1893;-65
2022/11/22 01:55:40;;;;;;;;;;;;;;;15.49;72.51;98344.03;5095063;28;1233;-65
2022/11/22 01:58:06;;;;;;;;;;;;;;;15.48;72.78;98347.16;5094678;28;1348;-64
2022/11/22 02:00:31;;;;;;;;;;;;;;;15.49;72.78;98354.25;5095057;28;809;-64
2022/11/22 02:03:00;;;;;;;;;;;;;;;15.50;72.99;98351.13;5094690;28;1755;-65
2022/11/22 02:05:28;;;;;;;;;;;;;;;15.48;73.12;98347.94;5094948;28;1085;-65
2022/11/22 02:08:03;;;;;;;;;;;;;;;15.48;72.47;98341.66;5089384;28;1925;-65
2022/11/22 02:10:29;;;;;;;;;;;;;;;15.48;72.80;98345.19;5091726;28;1692;-64
2022/11/22 02:12:56;;;;;;;;;;;;;;;15.48;72.88;98345.19;5094606;28;1893;-64
2022/11/22 02:15:21;;;;;;;;;;;;;;;15.45;72.98;98343.19;5094751;28;983;-65
2022/11/22 02:17:46;;;;;;;;;;;;;;;15.48;72.72;98331.41;5093118;28;1937;-64
2022/11/22 02:20:11;;;;;;;;;;;;;;;15.47;72.97;98329.81;5084038;28;1761;-65
2022/11/22 02:22:36;;;;;;;;;;;;;;;15.46;73.00;98333.75;5084025;28;2052;-65
2022/11/22 02:25:05;;;;;;;;;;;;;;;15.46;72.63;98327.44;5093760;28;2101;-65
2022/11/22 02:27:30;;;;;;;;;;;;;;;15.46;72.73;98317.19;5088514;28;2004;-65
2022/11/22 02:29:55;;;;;;;;;;;;;;;15.44;73.03;98313.22;5093236;28;1639;-65
2022/11/22 02:32:20;;;;;;;;;;;;;;;15.43;72.57;98317.91;5089098;28;1960;-65
2022/11/22 02:34:47;;;;;;;;;;;;;;;15.44;73.08;98325.03;5090638;28;1747;-64
2022/11/22 02:37:14;;;;;;;;;;;;;;;15.44;72.83;98336.06;5084829;28;1987;-65
2022/11/22 02:39:42;;;;;;;;;;;;;;;15.43;73.02;98325.41;5091412;28;2069;-65
2022/11/22 02:42:07;;;;;;;;;;;;;;;15.44;72.89;98324.25;5093458;28;1780;-64
2022/11/22 02:44:32;;;;;;;;;;;;;;;15.43;72.96;98317.13;5090825;28;1793;-64
2022/11/22 02:46:58;;;;;;;;;;;;;;;15.44;72.96;98313.22;5089055;28;1868;-65
2022/11/22 02:49:23;;;;;;;;;;;;;;;15.43;73.07;98306.09;5092494;28;2074;-65
2022/11/22 02:51:49;;;;;;;;;;;;;;;15.44;72.81;98315.97;5089633;28;2100;-64
2022/11/22 02:54:14;;;;;;;;;;;;;;;15.44;73.11;98319.53;5087414;28;1680;-64
2022/11/22 02:56:40;;;;;;;;;;;;;;;15.42;72.67;98332.88;5091330;28;2035;-65
2022/11/22 02:59:05;;;;;;;;;;;;;;;15.43;72.79;98323.44;5092272;28;1647;-65
2022/11/22 03:01:30;;;;;;;;;;;;;;;15.44;72.67;98329.75;5091368;28;1932;-65
2022/11/22 03:03:55;;;;;;;;;;;;;;;15.43;73.22;98326.19;5088388;28;1876;-64
2022/11/22 03:06:20;;;;;;;;;;;;;;;15.42;72.92;98327.34;5091808;28;1718;-65
2022/11/22 03:08:47;;;;;;;;;;;;;;;15.42;73.22;98338.38;5092598;28;1831;-65
2022/11/22 03:11:12;;;;;;;;;;;;;;;15.42;72.65;98326.56;5088082;28;1773;-65
2022/11/22 03:13:38;;;;;;;;;;;;;;;15.42;72.96;98329.31;5091993;28;2130;-64
2022/11/22 03:16:03;;;;;;;;;;;;;;;15.42;72.98;98323.78;5091262;28;1857;-65
2022/11/22 03:18:28;;;;;;;;;;;;;;;15.42;72.85;98321.03;5084091;28;1971;-65
2022/11/22 03:20:53;;;;;;;;;;;;;;;15.42;72.75;98319.09;5093057;28;1902;-65
2022/11/22 03:23:18;;;;;;;;;;;;;;;15.43;72.68;98337.22;5090746;28;1899;-65
2022/11/22 03:25:43;;;;;;;;;;;;;;;15.41;72.91;98333.22;5084134;28;1659;-66
2022/11/22 03:28:09;;;;;;;;;;;;;;;15.42;73.26;98332.06;5091175;28;1844;-65
2022/11/22 03:30:37;;;;;;;;;;;;;;;15.40;73.10;98332.44;5087671;28;2027;-66
2022/11/22 03:33:02;;;;;;;;;;;;;;;15.40;73.01;98329.66;5090958;28;1945;-65
2022/11/22 03:35:28;;;;;;;;;;;;;;;15.39;73.38;98321.78;5084342;28;1754;-65
2022/11/22 03:37:53;;;;;;;;;;;;;;;15.41;73.41;98325.75;5096426;22;2370;-64
2022/11/22 03:40:19;;;;;;;;;;;;;;;15.39;73.61;98341.88;5079761;28;1928;-65
2022/11/22 03:42:45;;;;;;;;;;;;;;;15.38;73.20;98336.72;5088015;28;2052;-64
2022/11/22 03:45:10;;;;;;;;;;;;;;;15.38;73.16;98337.53;5081598;28;1876;-65
2022/11/22 03:47:35;;;;;;;;;;;;;;;15.38;73.33;98336.72;5083794;28;1946;-64
2022/11/22 03:50:00;;;;;;;;;;;;;;;15.38;73.38;98329.25;5083152;28;1624;-65
2022/11/22 03:52:25;;;;;;;;;;;;;;;15.39;73.41;98321.78;5078902;28;1910;-63
2022/11/22 03:54:50;;;;;;;;;;;;;;;15.40;73.18;98326.91;5085588;28;1753;-65
2022/11/22 03:57:16;;;;;;;;;;;;;;;15.39;73.46;98330.06;5085149;28;1525;-65
2022/11/22 03:59:41;;;;;;;;;;;;;;;15.37;73.20;98332.38;5074623;28;1654;-65
2022/11/22 04:02:06;;;;;;;;;;;;;;;15.37;72.97;98333.19;5073590;28;1047;-65
2022/11/22 04:04:31;;;;;;;;;;;;;;;15.37;72.63;98335.13;5073863;28;979;-64
2022/11/22 04:06:56;;;;;;;;;;;;;;;15.38;73.02;98337.53;5083833;28;1347;-65
2022/11/22 04:09:22;;;;;;;;;;;;;;;15.37;73.71;98337.88;5093071;28;1608;-64
2022/11/22 04:11:47;;;;;;;;;;;;;;;15.36;73.27;98334.34;5083288;28;1887;-65
2022/11/22 04:16:56;;;;;;;;;;;;;;;15.37;73.57;98341.44;5093327;28;1212;-64
2022/11/22 04:19:21;;;;;;;;;;;;;;;15.36;73.46;98350.88;5093365;28;999;-65
2022/11/22 04:21:46;;;;;;;;;;;;;;;15.37;72.92;98351.66;5080001;28;1794;-65
2022/11/22 04:26:56;;;;;;;;;;;;;;;15.36;73.61;98361.91;5083462;28;1834;-65
2022/11/22 04:29:21;;;;;;;;;;;;;;;15.34;73.32;98364.22;5085330;28;1580;-65
2022/11/22 04:34:31;;;;;;;;;;;;;;;15.34;73.47;98369.72;5076828;28;1382;-65
2022/11/22 04:36:56;;;;;;;;;;;;;;;15.36;73.11;98374.88;5085627;28;1960;-65
2022/11/22 04:39:22;;;;;;;;;;;;;;;15.36;73.30;98370.16;5093166;28;1582;-65
2022/11/22 04:44:39;;;;;;;;;;;;;;;15.34;73.47;98383.50;5083215;28;2027;-64
2022/11/22 04:44:41;;;;;;;;;;;;;;;15.35;73.82;98371.31;5082448;28;1911;-65
2022/11/22 04:47:07;;;;;;;;;;;;;;;15.35;73.58;98382.34;5080314;28;2009;-65
2022/11/22 04:49:32;;;;;;;;;;;;;;;15.32;73.39;98383.06;5088872;28;1637;-65
2022/11/22 04:54:41;;;;;;;;;;;;;;;15.33;73.28;98386.63;5093837;28;1515;-65
2022/11/22 04:57:06;;;;;;;;;;;;;;;15.31;73.38;98386.97;5081927;28;1778;-65
2022/11/22 04:59:31;;;;;;;;;;;;;;;15.28;73.15;98390.47;5086183;28;1939;-65
2022/11/22 05:01:57;;;;;;;;;;;;;;;15.30;73.58;98390.13;5085652;28;1949;-66
2022/11/22 05:04:22;;;;;;;;;;;;;;;15.31;73.25;98389.75;5094677;28;1777;-66
2022/11/22 05:06:47;;;;;;;;;;;;;;;15.33;73.41;98400.41;5086097;28;1777;-64
2022/11/22 05:09:12;;;;;;;;;;;;;;;15.31;73.36;98400.75;5082700;28;2034;-66
2022/11/22 05:11:37;;;;;;;;;;;;;;;15.28;73.34;98386.94;5091103;28;1953;-65
2022/11/22 05:14:03;;;;;;;;;;;;;;;15.31;73.78;98395.25;5084497;28;1897;-65
2022/11/22 05:16:28;;;;;;;;;;;;;;;15.29;73.27;98392.09;5085487;28;1995;-65
2022/11/22 05:18:59;;;;;;;;;;;;;;;15.31;73.52;98392.50;5096528;28;1535;-65
2022/11/22 05:21:25;;;;;;;;;;;;;;;15.31;73.37;98394.47;5093710;28;1940;-64
2022/11/22 05:23:53;;;;;;;;;;;;;;;15.30;73.32;98395.63;5085862;28;2045;-64
2022/11/22 05:26:22;;;;;;;;;;;;;;;15.29;73.59;98397.59;5091028;28;1703;-65
2022/11/22 05:28:48;;;;;;;;;;;;;;;15.28;73.40;98392.44;5083568;28;1649;-64
2022/11/22 05:31:15;;;;;;;;;;;;;;;15.28;73.62;98397.94;5088416;28;1914;-65
2022/11/22 05:33:41;;;;;;;;;;;;;;;15.29;73.86;98405.88;5084567;28;1894;-65
2022/11/22 05:36:07;;;;;;;;;;;;;;;15.27;73.65;98397.16;5085741;28;1854;-65
2022/11/22 05:38:34;;;;;;;;;;;;;;;15.24;73.58;98392.34;5085182;28;1614;-65
2022/11/22 05:40:59;;;;;;;;;;;;;;;15.26;73.56;98386.50;5082499;28;1946;-65
2022/11/22 05:43:26;;;;;;;;;;;;;;;15.25;73.62;98379.38;5091228;28;1706;-65
2022/11/22 05:45:51;;;;;;;;;;;;;;;15.24;73.98;98380.53;5087453;28;1886;-64
2022/11/22 05:48:16;;;;;;;;;;;;;;;15.25;73.96;98382.13;5085894;28;1841;-64
2022/11/22 05:50:41;;;;;;;;;;;;;;;15.24;73.63;98383.28;5090738;28;1505;-64
2022/11/22 05:53:06;;;;;;;;;;;;;;;15.23;73.99;98384.44;5083092;28;1910;-65
2022/11/22 05:55:32;;;;;;;;;;;;;;;15.23;73.23;98381.69;5086882;28;1457;-64
2022/11/22 05:58:00;;;;;;;;;;;;;;;15.24;73.71;98381.34;5077586;28;1800;-64
2022/11/22 06:00:25;;;;;;;;;;;;;;;15.22;73.71;98389.19;5084938;28;1810;-63
2022/11/22 06:02:50;;;;;;;;;;;;;;;15.22;73.45;98399.41;5091784;28;1525;-64
2022/11/22 06:05:16;;;;;;;;;;;;;;;15.22;74.00;98400.22;5093799;28;840;-64
2022/11/22 06:07:41;;;;;;;;;;;;;;;15.22;74.04;98408.47;5094568;28;1297;-64
2022/11/22 06:10:06;;;;;;;;;;;;;;;15.22;73.58;98404.94;5094917;28;872;-65
2022/11/22 06:12:31;;;;;;;;;;;;;;;15.21;73.58;98404.13;5093478;28;1898;-65
2022/11/22 06:14:56;;;;;;;;;;;;;;;15.22;73.96;98408.47;5082868;28;1532;-65
2022/11/22 06:17:22;;;;;;;;;;;;;;;15.22;74.07;98410.44;5074219;28;1260;-65
2022/11/22 06:19:47;;;;;;;;;;;;;;;15.21;73.37;98409.63;5085697;28;1919;-65
2022/11/22 06:22:12;;;;;;;;;;;;;;;15.21;73.71;98419.84;5070324;28;1910;-65
2022/11/22 06:24:37;;;;;;;;;;;;;;;15.20;73.63;98410.78;5082549;28;1887;-65
2022/11/22 06:27:02;;;;;;;;;;;;;;;15.22;73.65;98411.22;5086382;28;2114;-65
2022/11/22 06:29:28;;;;;;;;;;;;;;;15.20;73.57;98421.81;5079671;28;2001;-65
2022/11/22 06:31:53;;;;;;;;;;;;;;;15.22;74.00;98425.00;5090060;28;1957;-64
2022/11/22 06:34:18;;;;;;;;;;;;;;;15.21;73.92;98425.38;5084525;28;1862;-65
2022/11/22 06:36:43;;;;;;;;;;;;;;;15.23;73.52;98428.53;5083206;28;1636;-65
2022/11/22 06:39:08;;;;;;;;;;;;;;;15.21;73.65;98430.88;5093103;28;1601;-66
2022/11/22 06:41:34;;;;;;;;;;;;;;;15.23;73.65;98434.84;5085471;28;1894;-64
2022/11/22 06:44:02;;;;;;;;;;;;;;;15.23;73.38;98440.38;5087480;28;1978;-65
2022/11/22 06:46:28;;;;;;;;;;;;;;;15.20;73.72;98443.88;5068268;28;1907;-65
2022/11/22 06:48:53;;;;;;;;;;;;;;;15.23;73.75;98453.34;5083130;28;1628;-65
2022/11/22 06:51:19;;;;;;;;;;;;;;;15.22;73.72;98458.09;5084491;28;1817;-64
2022/11/22 06:53:45;;;;;;;;;;;;;;;15.22;73.57;98468.31;5085782;28;1953;-64
2022/11/22 06:56:15;;;;;;;;;;;;;;;15.26;73.64;98460.91;5080833;28;2043;-65
2022/11/22 06:58:40;;;;;;;;;;;;;;;15.26;73.74;98464.47;5081104;28;1987;-64
2022/11/22 07:01:07;;;;;;;;;;;;;;;15.26;73.69;98464.47;5086370;28;1887;-65
2022/11/22 07:03:36;;;;;;;;;;;;;;;15.27;73.75;98474.31;5083957;28;1884;-64
2022/11/22 07:06:01;;;;;;;;;;;;;;;15.33;73.88;98472.88;5086604;28;2122;-65
2022/11/22 07:08:27;;;;;;;;;;;;;;;15.37;73.58;98472.97;5086461;28;1861;-65
2022/11/22 07:10:52;;;;;;;;;;;;;;;15.40;73.87;98483.25;5086591;28;2385;-64
2022/11/22 07:13:17;;;;;;;;;;;;;;;15.42;74.09;98478.19;5074776;28;1953;-65
2022/11/22 07:15:42;;;;;;;;;;;;;;;15.41;73.82;98477.38;5082723;28;1658;-65
2022/11/22 07:18:08;;;;;;;;;;;;;;;15.47;73.75;98483.44;5080487;28;1701;-65
2022/11/22 07:20:33;;;;;;;;;;;;;;;15.50;74.01;98477.97;5079974;28;1574;-65
2022/11/22 07:22:58;;;;;;;;;;;;;;;15.55;73.63;98492.69;5074229;28;2014;-66
2022/11/22 07:25:23;;;;;;;;;;;;;;;15.60;73.75;98489.63;5092437;28;2334;-64
2022/11/22 07:27:51;;;;;;;;;;;;;;;15.66;73.35;98496.44;5090267;28;2040;-66
2022/11/22 07:30:16;;;;;;;;;;;;;;;15.66;73.67;98494.47;5087711;28;1958;-65
2022/11/22 07:32:45;;;;;;;;;;;;;;;15.68;73.78;98503.19;5087899;28;2040;-65
2022/11/22 07:35:10;;;;;;;;;;;;;;;15.70;73.67;98511.09;5076754;28;1804;-66
2022/11/22 07:37:35;;;;;;;;;;;;;;;15.70;74.15;98509.16;5078555;28;1805;-64
2022/11/22 07:40:01;;;;;;;;;;;;;;;15.72;73.92;98508.78;5089115;28;1971;-64
2022/11/22 07:42:26;;;;;;;;;;;;;;;15.73;73.77;98502.91;5076687;28;2135;-65
2022/11/22 07:44:51;;;;;;;;;;;;;;;15.76;74.00;98509.66;5078993;28;1696;-64
2022/11/22 07:47:16;;;;;;;;;;;;;;;15.77;73.97;98514.81;5082246;28;1817;-65
2022/11/22 07:49:41;;;;;;;;;;;;;;;15.79;74.09;98517.22;5082459;28;1684;-65
2022/11/22 07:52:07;;;;;;;;;;;;;;;15.79;74.15;98520.78;5093243;28;1890;-65
2022/11/22 07:54:32;;;;;;;;;;;;;;;15.81;73.75;98525.94;5083276;28;2042;-65
2022/11/22 07:56:57;;;;;;;;;;;;;;;15.10;70.75;98529.84;5086608;28;1886;-65
2022/11/22 07:59:22;;;;;;;;;;;;;;;14.68;72.05;98543.38;5089520;28;2200;-65
2022/11/22 08:01:47;;;;;;;;;;;;;;;14.96;72.81;98554.31;5088509;28;1947;-64
2022/11/22 08:04:13;;;;;;;;;;;;;;;15.20;73.03;98545.03;5086547;28;1888;-64
2022/11/22 08:06:38;;;;;;;;;;;;;;;15.36;72.53;98538.31;5086238;28;2017;-65
2022/11/22 08:09:03;;;;;;;;;;;;;;;15.46;72.77;98535.00;5083884;28;2177;-65
2022/11/22 08:11:29;;;;;;;;;;;;;;;15.55;72.11;98534.84;5085712;28;2132;-65
2022/11/22 08:13:54;;;;;;;;;;;;;;;15.63;72.44;98533.03;5090008;28;2252;-65
2022/11/22 08:16:19;;;;;;;;;;;;;;;15.67;72.39;98534.69;5084307;28;1512;-65
2022/11/22 08:18:45;;;;;;;;;;;;;;;15.71;72.61;98535.56;5082024;28;2111;-67
2022/11/22 08:21:12;;;;;;;;;;;;;;;15.72;72.58;98537.19;5084032;28;2012;-65
2022/11/22 08:23:38;;;;;;;;;;;;;;;15.75;72.78;98538.38;5080279;28;2106;-66
2022/11/22 08:26:04;;;;;;;;;;;;;;;15.77;72.82;98534.13;5083571;28;2083;-65
2022/11/22 08:28:30;;;;;;;;;;;;;;;15.80;72.68;98535.34;5089162;28;1937;-65
2022/11/22 08:30:59;;;;;;;;;;;;;;;15.81;72.82;98546.03;5087516;28;2123;-64
2022/11/22 08:33:24;;;;;;;;;;;;;;;15.84;72.49;98545.28;5088053;28;2048;-64
2022/11/22 08:35:49;;;;;;;;;;;;;;;15.87;72.64;98547.34;5091216;28;2030;-65
2022/11/22 08:38:15;;;;;;;;;;;;;;;15.89;72.63;98549.75;5087340;28;2346;-64
2022/11/22 08:40:40;;;;;;;;;;;;;;;15.91;72.79;98546.63;5090357;28;2068;-65
2022/11/22 08:43:05;;;;;;;;;;;;;;;15.92;72.59;98549.00;5094222;28;1958;-65
2022/11/22 08:45:31;;;;;;;;;;;;;;;15.94;72.74;98546.69;5090065;28;2102;-64
2022/11/22 08:47:56;;;;;;;;;;;;;;;15.96;73.05;98554.59;5087442;28;2213;-64
2022/11/22 08:50:22;;;;;;;;;;;;;;;15.96;72.63;98552.63;5095149;28;1989;-65
2022/11/22 08:52:47;;;;;;;;;;;;;;;15.98;73.01;98557.81;5089892;28;1980;-64
2022/11/22 08:55:12;;;;;;;;;;;;;;;16.00;72.67;98563.72;5086495;28;1922;-64
2022/11/22 08:57:37;;;;;;;;;;;;;;;16.01;72.76;98563.38;5089799;28;2033;-64
2022/11/22 09:00:03;;;;;;;;;;;;;;;16.03;72.88;98560.25;5087015;28;1827;-65
2022/11/22 09:02:29;;;;;;;;;;;;;;;16.04;72.91;98559.09;5088923;28;2138;-65
2022/11/22 09:04:54;;;;;;;;;;;;;;;16.05;73.14;98549.66;5086131;28;2116;-64
2022/11/22 09:07:19;;;;;;;;;;;;;;;16.06;72.72;98560.34;5086951;28;1671;-64
2022/11/22 09:09:44;;;;;;;;;;;;;;;16.06;72.52;98563.09;5087019;28;2107;-65
2022/11/22 09:12:09;;;;;;;;;;;;;;;16.08;72.71;98569.03;5092347;28;2134;-65
2022/11/22 09:14:35;;;;;;;;;;;;;;;16.08;72.80;98574.56;5091708;28;2077;-65
2022/11/22 09:17:00;;;;;;;;;;;;;;;16.10;72.97;98579.72;5084646;28;1785;-65
2022/11/22 09:19:25;;;;;;;;;;;;;;;16.11;73.14;98595.13;5087220;28;1998;-65
2022/11/22 09:21:50;;;;;;;;;;;;;;;16.12;72.71;98593.97;5091870;28;1879;-65
2022/11/22 09:24:15;;;;;;;;;;;;;;;16.12;72.86;98600.28;5093622;28;1873;-64
2022/11/22 09:26:41;;;;;;;;;;;;;;;16.13;72.96;98599.13;5093070;28;2123;-64
2022/11/22 09:29:06;;;;;;;;;;;;;;;16.14;73.11;98603.47;5088655;28;1895;-64
2022/11/22 09:31:31;;;;;;;;;;;;;;;16.15;72.96;98596.81;5088548;28;2087;-65
2022/11/22 09:33:56;;;;;;;;;;;;;;;16.16;73.19;98601.13;5089964;28;1898;-65
2022/11/22 09:36:22;;;;;;;;;;;;;;;16.17;73.33;98593.66;5087161;28;2092;-64
2022/11/22 09:38:48;;;;;;;;;;;;;;;16.16;72.88;98595.63;5089349;28;1856;-64
2022/11/22 09:41:26;;;;;;;;;;;;;;;16.18;73.28;98604.34;5087028;28;2067;-65
2022/11/22 09:43:54;;;;;;;;;;;;;;;16.19;72.99;98602.38;5089972;28;2100;-64
2022/11/22 09:46:24;;;;;;;;;;;;;;;16.20;73.46;98603.97;5092787;28;2121;-64
2022/11/22 09:49:12;;;;;;;;;;;;;;;16.20;73.15;98609.50;5081231;28;1900;-64
2022/11/22 09:51:45;;;;;;;;;;;;;;;16.20;73.02;98602.00;5081035;28;2023;-65
2022/11/22 09:54:14;;;;;;;;;;;;;;;16.20;72.97;98599.25;5084885;28;1436;-64
2022/11/22 09:56:39;;;;;;;;;;;;;;;16.22;73.44;98599.69;5078244;28;1659;-64
2022/11/22 09:59:10;;;;;;;;;;;;;;;16.22;72.99;98602.47;5085609;28;1962;-64
2022/11/22 10:01:39;;;;;;;;;;;;;;;16.24;73.38;98602.91;5088142;28;1874;-64
2022/11/22 10:04:21;;;;;;;;;;;;;;;16.24;73.46;98597.38;5086603;28;2074;-64
2022/11/22 10:07:00;;;;;;;;;;;;;;;16.25;73.50;98598.16;5080844;28;1804;-64
2022/11/22 10:09:38;;;;;;;;;;;;;;;16.26;72.91;98592.28;5089755;28;1921;-65
2022/11/22 10:12:03;;;;;;;;;;;;;;;16.26;73.08;98595.03;5081485;28;1945;-64
2022/11/22 10:14:47;;;;;;;;;;;;;;;16.27;73.52;98585.59;5085042;28;1988;-64
2022/11/22 10:17:15;;;;;;;;;;;;;;;16.27;73.45;98579.25;5080859;28;1874;-65
2022/11/22 10:19:43;;;;;;;;;;;;;;;16.26;73.37;98575.69;5087301;28;2031;-65
2022/11/22 10:22:10;;;;;;;;;;;;;;;16.27;73.57;98582.03;5086425;28;1985;-64
2022/11/22 10:24:35;;;;;;;;;;;;;;;16.07;71.08;98583.22;5083714;28;2305;-65
2022/11/22 10:27:01;;;;;;;;;;;;;;;15.50;71.20;98579.19;5090327;28;1914;-64
2022/11/22 10:29:44;;;;;;;;;;;;;;;15.67;72.19;98581.56;5082660;28;1967;-65
2022/11/22 10:32:24;;;;;;;;;;;;;;;15.83;72.46;98573.25;5082459;28;1978;-65
2022/11/22 10:35:07;;;;;;;;;;;;;;;15.96;72.38;98574.72;5083668;28;2394;-64
2022/11/22 10:37:38;;;;;;;;;;;;;;;16.05;72.43;98568.97;5086649;28;1945;-65
2022/11/22 10:40:09;;;;;;;;;;;;;;;16.10;72.67;98568.66;5088913;28;2301;-64
2022/11/22 10:42:53;;;;;;;;;;;;;;;16.13;72.59;98567.97;5056244;28;1262;-65
2022/11/22 10:45:37;;;;;;;;;;;;;;;16.16;72.45;98559.72;5085025;28;1935;-64
2022/11/22 10:48:14;;;;;;;;;;;;;;;16.18;72.71;98557.41;5083351;28;1962;-65
2022/11/22 10:50:45;;;;;;;;;;;;;;;16.21;72.66;98561.41;5082592;28;2100;-65
2022/11/22 10:53:10;;;;;;;;;;;;;;;16.22;72.59;98563.81;5082168;28;2093;-64
2022/11/22 10:55:41;;;;;;;;;;;;;;;16.24;72.53;98567.00;5081829;28;1801;-65
2022/11/22 10:58:15;;;;;;;;;;;;;;;16.25;72.78;98563.06;5075649;28;1909;-65
2022/11/22 11:00:43;;;;;;;;;;;;;;;16.27;72.79;98548.91;5093152;28;1062;-64
2022/11/22 11:03:15;;;;;;;;;;;;;;;16.27;72.84;98552.47;5091942;28;1946;-64
2022/11/22 11:05:46;;;;;;;;;;;;;;;16.29;72.80;98549.34;5082825;28;2132;-64
2022/11/22 11:08:16;;;;;;;;;;;;;;;16.30;72.67;98552.91;5082541;28;1989;-65
2022/11/22 11:10:42;;;;;;;;;;;;;;;16.31;72.75;98546.22;5086670;28;1932;-64
2022/11/22 11:13:22;;;;;;;;;;;;;;;16.32;72.87;98548.63;5082547;28;1956;-65
2022/11/22 11:15:49;;;;;;;;;;;;;;;16.32;72.24;98540.34;5080054;28;2027;-65
2022/11/22 11:18:19;;;;;;;;;;;;;;;16.35;72.91;98538.78;5082032;28;1974;-64
2022/11/22 11:20:46;;;;;;;;;;;;;;;16.35;72.85;98530.50;5082268;28;1577;-65
2022/11/22 11:23:12;;;;;;;;;;;;;;;16.36;72.88;98532.09;5083859;28;2047;-65
2022/11/22 11:25:42;;;;;;;;;;;;;;;16.34;72.74;98532.47;5091748;28;1610;-65
2022/11/22 11:28:15;;;;;;;;;;;;;;;16.36;73.15;98543.16;5083449;28;1800;-65
2022/11/22 11:31:06;;;;;;;;;;;;;;;16.36;73.02;98538.44;5075953;28;1892;-65
2022/11/22 11:33:33;;;;;;;;;;;;;;;16.37;72.70;98539.22;5077848;28;2070;-65
2022/11/22 11:36:28;;;;;;;;;;;;;;;16.37;72.66;98545.53;5086214;28;1839;-64
2022/11/22 11:38:55;;;;;;;;;;;;;;;16.38;73.26;98554.63;5067112;28;1844;-64
2022/11/22 11:41:33;;;;;;;;;;;;;;;16.39;72.70;98553.47;5073191;28;921;-64
2022/11/22 11:44:04;;;;;;;;;;;;;;;16.38;72.84;98546.34;5073120;28;805;-64
2022/11/22 11:46:38;;;;;;;;;;;;;;;16.38;72.55;98552.66;5079596;28;2200;-64
2022/11/22 11:49:14;;;;;;;;;;;;;;;16.40;72.67;98544.03;5086338;28;2200;-64
2022/11/22 11:51:41;;;;;;;;;;;;;;;16.41;72.86;98553.91;5085289;28;2099;-64
2022/11/22 11:54:14;;;;;;;;;;;;;;;16.40;73.20;98541.25;5086262;28;1902;-65
2022/11/22 11:56:39;;;;;;;;;;;;;;;16.41;73.20;98545.63;5082831;28;1602;-63
2022/11/22 11:59:06;;;;;;;;;;;;;;;16.40;73.16;98555.88;5090891;28;1837;-64
2022/11/22 12:01:32;;;;;;;;;;;;;;;16.42;72.92;98547.19;5091685;28;1986;-65
2022/11/22 12:04:00;;;;;;;;;;;;;;;16.42;72.95;98552.72;5088925;28;2088;-64
2022/11/22 12:06:29;;;;;;;;;;;;;;;16.41;73.20;98554.72;5092251;28;1890;-65
2022/11/22 12:08:56;;;;;;;;;;;;;;;16.42;73.03;98549.94;5084030;28;1876;-64
2022/11/22 12:11:30;;;;;;;;;;;;;;;16.42;73.09;98553.50;5091779;28;1701;-64
2022/11/22 12:13:59;;;;;;;;;;;;;;;16.42;72.74;98555.47;5086558;28;1938;-64
2022/11/22 12:16:28;;;;;;;;;;;;;;;16.43;73.16;98551.56;5083492;28;2363;-64
2022/11/22 12:19:09;;;;;;;;;;;;;;;16.44;72.70;98555.91;5081391;28;1726;-64
2022/11/22 12:21:40;;;;;;;;;;;;;;;16.43;73.15;98546.84;5085893;28;1621;-64
2022/11/22 12:24:11;;;;;;;;;;;;;;;16.44;73.14;98548.44;5089695;28;1980;-64
2022/11/22 12:26:36;;;;;;;;;;;;;;;16.44;72.73;98545.66;5091493;28;1648;-64
2022/11/22 12:29:02;;;;;;;;;;;;;;;16.45;72.92;98544.50;5085502;28;2503;-64
2022/11/22 12:31:45;;;;;;;;;;;;;;;16.45;73.25;98538.19;5087449;28;2005;-64
2022/11/22 12:34:15;;;;;;;;;;;;;;;16.47;73.44;98538.63;5090353;28;1959;-65
2022/11/22 12:36:44;;;;;;;;;;;;;;;16.46;72.88;98543.34;5084661;28;1909;-65
2022/11/22 12:39:15;;;;;;;;;;;;;;;16.48;73.36;98543.00;5083060;28;2048;-65
2022/11/22 12:41:41;;;;;;;;;;;;;;;16.48;73.29;98543.78;5084812;28;1641;-65
2022/11/22 12:44:11;;;;;;;;;;;;;;;16.49;72.94;98541.81;5089036;28;2145;-65
2022/11/22 12:46:38;;;;;;;;;;;;;;;16.50;73.19;98537.91;5081555;28;1956;-65
2022/11/22 12:49:09;;;;;;;;;;;;;;;16.50;73.18;98535.13;5084909;28;1922;-64
2022/11/22 12:51:38;;;;;;;;;;;;;;;16.51;73.44;98525.66;5082514;28;1871;-64
2022/11/22 12:54:05;;;;;;;;;;;;;;;16.51;73.34;98533.94;5094850;28;2017;-64
2022/11/22 12:56:37;;;;;;;;;;;;;;;16.52;72.37;98541.88;5086172;28;1973;-65
2022/11/22 12:59:21;;;;;;;;;;;;;;;16.51;72.78;98533.94;5084694;28;1558;-64
2022/11/22 13:02:04;;;;;;;;;;;;;;;16.53;72.96;98545.44;5092667;28;2043;-65
2022/11/22 13:04:32;;;;;;;;;;;;;;;16.53;72.88;98539.91;5086610;28;1806;-64
2022/11/22 13:06:57;;;;;;;;;;;;;;;16.53;73.10;98529.66;5089105;28;2100;-65
2022/11/22 13:09:27;;;;;;;;;;;;;;;16.54;73.20;98531.25;5079529;28;1525;-64